SMF weather

Sacramento International Airport
Sacramento, California, United States

Public forecast

Using degrees Fahrenheit for public forecast. Weather courtesy of forecast.io.

Current aviation weather report (METAR) for Sacramento International Airport

Retrieved 2019/10/20 03:53 UTC (43 minutes ago):

KSMF 200353Z 00000KT 10SM FEW045 BKN250 16/13 A3002 RMK AO2 SLP166 T01610128

Aviation forecast (TAF) for Sacramento International Airport

Retrieved 2019-10-20 00:36 UTC (4 hours ago):

TAF KSMF 192335Z 2000/2024 15007KT P6SM SCT050 BKN100 FM200500 33008KT P6SM BKN250